Time;durP1;ratioP1;P1;durP2;ratioP2;P2;SDS_P1;SDS_P2;PMS_P1;PMS_P2;Temp;Humidity;BMP_temperature;BMP_pressure;BME280_temperature;BME280_humidity;BME280_pressure;Samples;Min_cycle;Max_cycle;Signal;HPM_P1;HPM_P2
2023/01/25 00:01:42;;;;;;;37.08;22.50;;;0.60;99.90;;;;;;5055348;28;20094;-71
2023/01/25 00:04:08;;;;;;;38.33;21.50;;;0.70;99.90;;;;;;5044630;28;20064;-72
2023/01/25 00:06:34;;;;;;;35.13;20.05;;;0.60;99.90;;;;;;5062356;28;20563;-71
2023/01/25 00:09:04;;;;;;;39.70;21.55;;;0.60;99.90;;;;;;5035398;28;20044;-71
2023/01/25 00:11:30;;;;;;;35.60;20.15;;;0.60;99.90;;;;;;5043123;28;20040;-71
2023/01/25 00:13:56;;;;;;;36.40;20.65;;;0.60;99.90;;;;;;5062870;28;20106;-71
2023/01/25 00:16:23;;;;;;;36.13;20.90;;;0.60;99.90;;;;;;5044533;28;20036;-71
2023/01/25 00:18:49;;;;;;;35.55;20.50;;;0.60;99.90;;;;;;5033245;28;20128;-71
2023/01/25 00:21:19;;;;;;;35.95;20.83;;;0.60;99.90;;;;;;5024137;28;20045;-71
2023/01/25 00:23:44;;;;;;;34.70;19.98;;;0.60;99.90;;;;;;5026612;28;21885;-71
2023/01/25 00:26:10;;;;;;;35.80;21.17;;;0.60;99.90;;;;;;5039173;28;20075;-71
2023/01/25 00:28:36;;;;;;;34.53;19.00;;;0.60;99.90;;;;;;5040115;28;20563;-71
2023/01/25 00:31:04;;;;;;;36.67;20.98;;;0.70;99.90;;;;;;5027760;28;20417;-72
2023/01/25 00:33:36;;;;;;;34.47;20.20;;;0.70;99.90;;;;;;5035352;28;20041;-71
2023/01/25 00:36:32;;;;;;;34.35;19.98;;;1.20;99.90;;;;;;5028172;28;20041;-71
2023/01/25 00:38:58;;;;;;;36.00;20.88;;;0.60;99.90;;;;;;5037909;28;20574;-71
2023/01/25 00:41:24;;;;;;;33.15;19.23;;;0.60;99.90;;;;;;5054537;28;20040;-71
2023/01/25 00:43:49;;;;;;;35.75;20.05;;;0.60;99.90;;;;;;5017282;28;20091;-71
2023/01/25 00:46:16;;;;;;;33.97;21.08;;;1.50;99.90;;;;;;5057791;28;20512;-71
2023/01/25 00:48:42;;;;;;;35.63;21.63;;;0.60;99.90;;;;;;5037358;28;20697;-71
2023/01/25 00:51:08;;;;;;;35.42;20.67;;;0.60;99.90;;;;;;5018796;28;20049;-71
2023/01/25 00:53:34;;;;;;;36.50;20.52;;;0.50;99.90;;;;;;5020499;28;20051;-71
2023/01/25 00:56:00;;;;;;;35.35;21.25;;;0.50;99.90;;;;;;5058408;28;20600;-70
2023/01/25 00:58:26;;;;;;;37.22;20.60;;;0.50;99.90;;;;;;5034136;28;20181;-71
2023/01/25 01:00:53;;;;;;;35.63;20.98;;;0.40;99.90;;;;;;5033871;28;20045;-70
2023/01/25 01:03:19;;;;;;;34.88;20.45;;;0.40;99.90;;;;;;5034116;28;20048;-70
2023/01/25 01:05:45;;;;;;;39.63;21.45;;;0.60;99.90;;;;;;5021450;28;20497;-71
2023/01/25 01:08:12;;;;;;;36.58;20.77;;;0.40;99.90;;;;;;5049694;28;20041;-71
2023/01/25 01:10:38;;;;;;;38.28;21.90;;;0.50;99.90;;;;;;5061524;28;20522;-71
2023/01/25 01:13:04;;;;;;;42.15;22.83;;;0.40;99.90;;;;;;5025910;28;20056;-71
2023/01/25 01:15:30;;;;;;;37.53;21.30;;;0.40;99.90;;;;;;5037004;28;20044;-70
2023/01/25 01:17:56;;;;;;;37.42;21.58;;;0.40;99.90;;;;;;5051558;28;20041;-71
2023/01/25 01:20:22;;;;;;;39.28;22.48;;;0.40;99.90;;;;;;5041583;28;20359;-71
2023/01/25 01:22:51;;;;;;;37.90;21.63;;;0.40;99.90;;;;;;5036895;28;20119;-72
2023/01/25 01:25:16;;;;;;;39.80;22.33;;;0.40;99.90;;;;;;5043651;28;20067;-70
2023/01/25 01:27:42;;;;;;;37.10;22.15;;;0.40;99.90;;;;;;5035482;28;20130;-70
2023/01/25 01:30:08;;;;;;;37.30;22.38;;;0.40;99.90;;;;;;5030887;28;20053;-70
2023/01/25 01:32:34;;;;;;;40.53;22.92;;;0.40;99.90;;;;;;5037681;28;20477;-70
2023/01/25 01:35:00;;;;;;;39.95;22.20;;;0.50;99.90;;;;;;5059063;28;20041;-70
2023/01/25 01:37:25;;;;;;;39.60;22.35;;;0.90;99.90;;;;;;5035449;28;20785;-70
2023/01/25 01:39:51;;;;;;;41.65;23.73;;;0.30;99.90;;;;;;5032493;28;20044;-70
2023/01/25 01:42:17;;;;;;;41.38;23.38;;;0.30;99.90;;;;;;5050623;28;20045;-70
2023/01/25 01:44:51;;;;;;;38.53;21.60;;;0.30;99.90;;;;;;5055112;28;20711;-70
2023/01/25 01:47:26;;;;;;;43.60;23.90;;;0.30;99.90;;;;;;5062050;28;20488;-70
2023/01/25 01:50:22;;;;;;;44.38;23.67;;;0.30;99.90;;;;;;5050042;28;20623;-71
2023/01/25 01:52:48;;;;;;;42.03;23.00;;;0.30;99.90;;;;;;5037331;28;20045;-71
2023/01/25 01:55:17;;;;;;;45.92;25.05;;;1.10;99.90;;;;;;5059562;28;20045;-71
2023/01/25 01:57:52;;;;;;;44.45;24.15;;;0.30;99.90;;;;;;5021318;28;20114;-71
2023/01/25 02:00:28;;;;;;;44.28;26.13;;;0.30;99.90;;;;;;5038174;28;20719;-71
2023/01/25 02:02:54;;;;;;;46.10;25.90;;;0.30;99.90;;;;;;5039427;28;20071;-70
2023/01/25 02:05:51;;;;;;;48.55;26.63;;;0.20;99.90;;;;;;5041708;28;20044;-71
2023/01/25 02:08:18;;;;;;;49.22;27.95;;;0.20;99.90;;;;;;5057013;28;20051;-71
2023/01/25 02:10:45;;;;;;;52.97;29.52;;;0.20;99.90;;;;;;5060481;28;20095;-71
2023/01/25 02:13:11;;;;;;;55.25;30.10;;;0.20;99.90;;;;;;5044858;28;20874;-71
2023/01/25 02:15:44;;;;;;;55.70;29.13;;;0.20;99.90;;;;;;5059293;28;20147;-71
2023/01/25 02:18:11;;;;;;;53.75;28.73;;;0.20;99.90;;;;;;5022851;28;20122;-70
2023/01/25 02:20:43;;;;;;;55.78;29.17;;;0.30;99.90;;;;;;5036817;28;20037;-71
2023/01/25 02:23:34;;;;;;;52.58;27.88;;;0.20;99.90;;;;;;5039895;28;20040;-70
2023/01/25 02:26:05;;;;;;;52.83;28.33;;;0.20;99.90;;;;;;5054076;28;20689;-70
2023/01/25 02:28:58;;;;;;;60.58;31.33;;;0.20;99.90;;;;;;5034988;28;20093;-70
2023/01/25 02:31:24;;;;;;;54.58;29.48;;;0.20;99.90;;;;;;5056619;28;20382;-71
2023/01/25 02:33:50;;;;;;;57.05;30.30;;;0.30;99.90;;;;;;5041219;28;20044;-71
2023/01/25 02:36:20;;;;;;;59.22;30.35;;;0.20;99.90;;;;;;5050982;28;20090;-70
2023/01/25 02:38:52;;;;;;;62.15;32.03;;;0.10;99.90;;;;;;5028415;28;20029;-71
2023/01/25 02:41:36;;;;;;;67.13;32.65;;;0.20;99.90;;;;;;5019754;28;20484;-71
2023/01/25 02:44:09;;;;;;;61.88;32.25;;;0.20;99.90;;;;;;5014626;28;20037;-70
2023/01/25 02:46:37;;;;;;;64.85;33.78;;;0.20;99.90;;;;;;5021087;28;20048;-71
2023/01/25 02:49:05;;;;;;;60.58;32.45;;;0.10;99.90;;;;;;5051958;28;20105;-71
2023/01/25 02:51:33;;;;;;;62.15;32.53;;;0.90;99.90;;;;;;5031434;28;20044;-71
2023/01/25 02:54:00;;;;;;;69.25;34.40;;;0.10;99.90;;;;;;5037127;28;20053;-71
2023/01/25 02:56:26;;;;;;;73.03;34.70;;;0.10;99.90;;;;;;5032926;28;20044;-71
2023/01/25 02:58:52;;;;;;;66.90;34.22;;;0.50;99.90;;;;;;5059444;28;20486;-70
2023/01/25 03:01:18;;;;;;;66.25;34.72;;;0.20;99.90;;;;;;5052704;28;20033;-71
2023/01/25 03:03:44;;;;;;;68.57;35.60;;;0.20;99.90;;;;;;5023207;28;20439;-70
2023/01/25 03:06:10;;;;;;;69.97;35.42;;;0.40;99.90;;;;;;5036435;28;20072;-71
2023/01/25 03:08:35;;;;;;;73.75;38.08;;;0.20;99.90;;;;;;5039247;28;20052;-72
2023/01/25 03:11:03;;;;;;;82.13;40.42;;;0.40;99.90;;;;;;5028482;28;20041;-72
2023/01/25 03:13:30;;;;;;;72.80;37.33;;;0.20;99.90;;;;;;4968137;28;1286589;-72
2023/01/25 03:16:02;;;;;;;73.82;37.58;;;0.20;99.90;;;;;;5038183;28;20080;-72
2023/01/25 03:18:27;;;;;;;;;;;0.20;99.90;;;;;;5043154;28;20044;-70
2023/01/25 03:20:53;;;;;;;75.53;36.67;;;0.10;99.90;;;;;;5039788;28;19952;-69
2023/01/25 03:23:19;;;;;;;74.72;36.72;;;0.10;99.90;;;;;;5012780;28;20049;-71
2023/01/25 03:25:45;;;;;;;76.07;39.08;;;0.10;99.90;;;;;;5027793;28;20786;-71
2023/01/25 03:28:11;;;;;;;78.47;38.90;;;0.80;99.90;;;;;;5023633;28;20049;-70
2023/01/25 03:30:36;;;;;;;71.72;35.40;;;0.20;99.90;;;;;;5037963;28;20052;-71
2023/01/25 03:33:02;;;;;;;73.82;37.78;;;0.20;99.90;;;;;;5040912;28;20040;-71
2023/01/25 03:35:28;;;;;;;76.30;36.50;;;0.10;99.90;;;;;;5029681;28;20412;-71
2023/01/25 03:37:53;;;;;;;73.35;37.67;;;0.20;99.90;;;;;;5036872;28;20501;-71
2023/01/25 03:40:19;;;;;;;76.07;37.55;;;0.20;99.90;;;;;;5029424;28;20303;-71
2023/01/25 03:42:45;;;;;;;69.82;36.67;;;0.20;99.90;;;;;;5036854;28;20041;-71
2023/01/25 03:45:13;;;;;;;74.90;37.28;;;0.20;99.90;;;;;;5036711;28;20556;-70
2023/01/25 03:47:40;;;;;;;74.60;37.72;;;0.40;99.90;;;;;;5032694;28;20594;-71
2023/01/25 03:50:07;;;;;;;76.40;39.92;;;0.20;99.90;;;;;;5029368;28;20080;-71
2023/01/25 03:52:40;;;;;;;75.40;39.45;;;0.20;99.90;;;;;;5033080;28;20041;-72
2023/01/25 03:55:07;;;;;;;82.53;39.55;;;0.40;99.90;;;;;;5024603;28;20041;-72
2023/01/25 03:57:32;;;;;;;76.28;38.42;;;0.20;99.90;;;;;;5037726;28;20041;-71
2023/01/25 03:59:58;;;;;;;72.97;37.33;;;0.20;99.90;;;;;;5031063;28;20038;-72
2023/01/25 04:02:24;;;;;;;72.93;37.03;;;0.20;99.90;;;;;;5016169;28;20049;-71
2023/01/25 04:04:49;;;;;;;74.80;39.60;;;0.20;99.90;;;;;;5039376;28;20045;-71
2023/01/25 04:07:15;;;;;;;69.25;35.50;;;0.20;99.90;;;;;;5017741;28;20124;-71
2023/01/25 04:09:41;;;;;;;70.70;36.08;;;0.20;99.90;;;;;;5041210;28;20052;-70
2023/01/25 04:12:06;;;;;;;68.07;34.83;;;0.10;99.90;;;;;;5026259;28;20048;-71
2023/01/25 04:14:32;;;;;;;71.97;37.65;;;0.10;99.90;;;;;;5023627;28;20783;-70
2023/01/25 04:16:58;;;;;;;76.80;36.55;;;0.50;99.90;;;;;;5030209;28;20037;-71
2023/01/25 04:19:24;;;;;;;67.75;35.47;;;0.10;99.90;;;;;;5033623;28;20044;-71
2023/01/25 04:21:49;;;;;;;66.95;33.90;;;0.50;99.90;;;;;;5037009;28;20083;-71
2023/01/25 04:24:15;;;;;;;68.82;35.40;;;0.10;99.90;;;;;;5024297;28;20052;-70
2023/01/25 04:26:41;;;;;;;66.47;33.50;;;0.00;99.90;;;;;;5033683;28;20124;-70
2023/01/25 04:29:06;;;;;;;68.50;35.05;;;0.40;99.90;;;;;;5033652;28;20494;-70
2023/01/25 04:31:32;;;;;;;68.78;34.40;;;0.00;99.90;;;;;;5023024;28;20088;-71
2023/01/25 04:33:58;;;;;;;66.25;34.30;;;0.00;99.90;;;;;;5042553;28;20037;-70
2023/01/25 04:36:24;;;;;;;72.38;35.92;;;0.00;99.90;;;;;;5039203;28;20075;-70
2023/01/25 04:38:49;;;;;;;69.97;35.05;;;0.00;99.90;;;;;;5037952;28;20126;-71
2023/01/25 04:41:15;;;;;;;64.95;34.53;;;0.30;99.90;;;;;;5042913;28;20498;-71
2023/01/25 04:43:40;;;;;;;66.57;34.63;;;-0.10;99.90;;;;;;5034329;28;20041;-71
2023/01/25 04:46:07;;;;;;;67.18;35.13;;;-0.10;99.90;;;;;;5023801;28;20029;-71
2023/01/25 04:48:33;;;;;;;68.63;35.03;;;-0.10;99.90;;;;;;5033076;28;20056;-71
2023/01/25 04:50:59;;;;;;;69.85;35.10;;;0.30;99.90;;;;;;5033053;28;20123;-71
2023/01/25 04:53:26;;;;;;;70.13;36.13;;;-0.10;99.90;;;;;;5033408;28;20053;-72
2023/01/25 04:55:51;;;;;;;65.43;35.85;;;-0.10;99.90;;;;;;5031551;28;20125;-72
2023/01/25 04:58:18;;;;;;;69.45;36.17;;;-0.10;99.90;;;;;;5005782;28;20140;-72
2023/01/25 05:00:44;;;;;;;70.32;35.10;;;-0.10;99.90;;;;;;5029931;28;20056;-72
2023/01/25 05:03:09;;;;;;;69.32;34.50;;;-0.10;99.90;;;;;;5035103;28;20033;-72
2023/01/25 05:05:35;;;;;;;73.57;36.05;;;-0.10;99.90;;;;;;5035308;28;20049;-71
2023/01/25 05:08:01;;;;;;;68.38;33.90;;;-0.10;99.90;;;;;;5041774;28;20178;-72
2023/01/25 05:10:27;;;;;;;65.70;34.17;;;-0.10;99.90;;;;;;5040160;28;20060;-71
2023/01/25 05:12:52;;;;;;;68.22;35.20;;;-0.10;99.90;;;;;;5029291;28;20049;-72
2023/01/25 05:15:18;;;;;;;70.38;35.13;;;0.00;99.90;;;;;;5036505;28;20536;-72
2023/01/25 05:17:44;;;;;;;66.47;34.53;;;-0.10;99.90;;;;;;5040028;28;20083;-72
2023/01/25 05:20:10;;;;;;;67.47;33.60;;;-0.10;99.90;;;;;;5036927;28;20514;-72
2023/01/25 05:22:36;;;;;;;70.28;36.13;;;0.00;99.90;;;;;;5023557;28;20384;-72
2023/01/25 05:25:02;;;;;;;75.82;36.63;;;-0.10;99.90;;;;;;5034372;28;20048;-71
2023/01/25 05:27:28;;;;;;;70.35;35.03;;;-0.10;99.90;;;;;;5033441;28;20466;-72
2023/01/25 05:29:54;;;;;;;71.53;36.50;;;0.30;99.90;;;;;;5036177;28;20537;-72
2023/01/25 05:32:22;;;;;;;77.18;37.13;;;-0.10;99.90;;;;;;5040373;28;20123;-71
2023/01/25 05:34:48;;;;;;;70.18;35.83;;;-0.10;99.90;;;;;;5036344;28;20049;-71
2023/01/25 05:37:17;;;;;;;71.25;35.95;;;-0.10;99.90;;;;;;5031374;28;20037;-71
2023/01/25 05:39:43;;;;;;;66.72;34.70;;;-0.20;99.90;;;;;;5008867;28;20068;-72
2023/01/25 05:42:14;;;;;;;67.53;34.15;;;-0.10;99.90;;;;;;5005756;28;20030;-71
2023/01/25 05:44:39;;;;;;;53.67;26.55;;;-0.20;99.90;;;;;;5026138;28;20137;-72
2023/01/25 05:47:06;;;;;;;74.75;35.97;;;-0.20;99.90;;;;;;5032518;28;20120;-72
2023/01/25 05:49:32;;;;;;;71.00;33.25;;;-0.20;99.90;;;;;;5031990;28;20080;-72
2023/01/25 05:51:57;;;;;;;68.28;34.67;;;-0.20;99.90;;;;;;5029085;28;20634;-71
2023/01/25 05:54:23;;;;;;;66.15;32.80;;;-0.20;99.90;;;;;;5017860;28;20787;-71
2023/01/25 05:56:49;;;;;;;68.15;33.97;;;-0.20;99.90;;;;;;5033839;28;20522;-71
2023/01/25 05:59:16;;;;;;;68.65;33.45;;;0.20;99.90;;;;;;5036285;28;20612;-70
2023/01/25 06:01:42;;;;;;;66.65;33.10;;;-0.20;99.90;;;;;;5019544;28;20041;-72
2023/01/25 06:04:13;;;;;;;67.80;32.63;;;-0.20;99.90;;;;;;5038483;28;20048;-70
2023/01/25 06:06:38;;;;;;;67.68;33.20;;;-0.30;99.90;;;;;;5030799;28;20108;-71
2023/01/25 06:09:04;;;;;;;66.53;33.67;;;-0.30;99.90;;;;;;5029911;28;20041;-71
2023/01/25 06:11:30;;;;;;;64.13;32.75;;;-0.30;99.90;;;;;;5035140;28;20060;-71
2023/01/25 06:13:56;;;;;;;69.20;33.85;;;-0.30;99.90;;;;;;5047127;28;20087;-70
2023/01/25 06:16:22;;;;;;;67.22;33.67;;;-0.30;99.90;;;;;;5038122;28;20056;-71
2023/01/25 06:18:48;;;;;;;64.50;32.05;;;-0.30;99.90;;;;;;5033277;28;20044;-71
2023/01/25 06:21:13;;;;;;;63.75;32.80;;;-0.30;99.90;;;;;;5049810;28;20051;-71
2023/01/25 06:23:39;;;;;;;64.90;33.45;;;-0.30;99.90;;;;;;5034054;28;20049;-72
2023/01/25 06:26:11;;;;;;;64.13;32.92;;;-0.30;99.90;;;;;;5034730;28;20047;-72
2023/01/25 06:28:38;;;;;;;63.33;34.40;;;-0.30;99.90;;;;;;5017564;28;20063;-72
2023/01/25 06:31:12;;;;;;;61.72;32.85;;;-0.30;99.90;;;;;;5047940;28;20044;-72
2023/01/25 06:33:38;;;;;;;66.63;34.20;;;-0.30;99.90;;;;;;5049175;28;20049;-72
2023/01/25 06:36:06;;;;;;;66.68;32.58;;;-0.30;99.90;;;;;;5027100;28;20048;-72
2023/01/25 06:38:32;;;;;;;64.35;33.08;;;-0.30;99.90;;;;;;5031628;28;20044;-69
2023/01/25 06:41:03;;;;;;;67.68;35.03;;;-0.30;99.90;;;;;;5054212;28;20048;-70
2023/01/25 06:43:32;;;;;;;62.00;31.67;;;-0.40;99.90;;;;;;5055104;28;20105;-71
2023/01/25 06:46:03;;;;;;;64.97;34.05;;;-0.30;99.90;;;;;;5054061;28;20055;-71
2023/01/25 06:48:30;;;;;;;64.32;31.75;;;-0.30;99.90;;;;;;5024249;28;20067;-71
2023/01/25 06:51:07;;;;;;;57.95;30.52;;;-0.40;99.90;;;;;;5036871;28;20040;-71
2023/01/25 06:53:36;;;;;;;57.47;29.73;;;-0.40;99.90;;;;;;5053540;28;20685;-71
2023/01/25 06:56:03;;;;;;;56.40;30.33;;;-0.40;99.90;;;;;;5039448;28;20056;-72
2023/01/25 06:58:30;;;;;;;59.28;31.27;;;-0.40;99.90;;;;;;5012168;28;20425;-71
2023/01/25 07:01:05;;;;;;;59.92;29.33;;;-0.40;99.90;;;;;;5034875;28;20051;-70
2023/01/25 07:03:31;;;;;;;59.85;30.80;;;-0.40;99.90;;;;;;5020199;28;20149;-71
2023/01/25 07:06:03;;;;;;;58.33;30.67;;;-0.40;99.90;;;;;;5048145;28;20048;-71
2023/01/25 07:08:29;;;;;;;56.47;29.25;;;-0.40;99.90;;;;;;5033239;28;20409;-71
2023/01/25 07:11:01;;;;;;;55.55;30.15;;;-0.40;99.90;;;;;;5032353;28;20040;-70
2023/01/25 07:13:28;;;;;;;55.78;30.42;;;-0.40;99.90;;;;;;5026472;28;20087;-71
2023/01/25 07:16:02;;;;;;;54.45;29.85;;;-0.50;99.90;;;;;;5031244;28;20088;-70
2023/01/25 07:18:32;;;;;;;57.60;29.75;;;-0.50;99.90;;;;;;5026839;28;20044;-71
2023/01/25 07:21:11;;;;;;;58.22;31.20;;;-0.50;99.90;;;;;;5014330;28;20052;-71
2023/01/25 07:23:37;;;;;;;56.53;30.25;;;-0.50;99.90;;;;;;5016932;28;20528;-71
2023/01/25 07:26:04;;;;;;;52.83;29.05;;;-0.50;99.90;;;;;;5013630;28;20041;-71
2023/01/25 07:28:32;;;;;;;57.00;30.42;;;-0.50;99.90;;;;;;5051111;28;20066;-71
2023/01/25 07:31:07;;;;;;;54.75;30.73;;;-0.50;99.90;;;;;;5051852;28;20033;-71
2023/01/25 07:33:33;;;;;;;54.08;29.35;;;-0.50;99.90;;;;;;5052543;28;20144;-71
2023/01/25 07:36:01;;;;;;;53.83;29.77;;;-0.50;99.90;;;;;;5038746;28;20052;-71
2023/01/25 07:38:26;;;;;;;57.72;28.88;;;-0.50;99.90;;;;;;5023203;28;20055;-70
2023/01/25 07:40:52;;;;;;;56.70;31.10;;;-0.50;99.90;;;;;;5037089;28;20037;-71
2023/01/25 07:43:19;;;;;;;55.85;29.00;;;-0.50;99.90;;;;;;5056657;28;20043;-71
2023/01/25 07:45:47;;;;;;;62.60;33.67;;;-0.50;99.90;;;;;;5033793;28;20036;-71
2023/01/25 07:48:14;;;;;;;59.00;30.58;;;-0.50;99.90;;;;;;5022172;28;20512;-71
2023/01/25 07:50:40;;;;;;;57.25;30.80;;;-0.50;99.90;;;;;;5039064;28;20648;-71
2023/01/25 07:53:09;;;;;;;61.97;30.67;;;0.00;99.90;;;;;;5039896;28;20355;-71
2023/01/25 07:55:35;;;;;;;56.03;30.40;;;-0.50;99.90;;;;;;5040235;28;20070;-70
2023/01/25 07:58:01;;;;;;;55.97;30.27;;;-0.50;99.90;;;;;;5038517;28;20037;-71
2023/01/25 08:00:26;;;;;;;57.58;31.90;;;-0.50;99.90;;;;;;5038552;28;20040;-70
2023/01/25 08:02:52;;;;;;;56.10;29.67;;;-0.60;99.90;;;;;;5011539;28;20118;-71
2023/01/25 08:05:19;;;;;;;55.88;30.30;;;-0.60;99.90;;;;;;5054171;28;20029;-71
2023/01/25 08:07:45;;;;;;;60.45;31.80;;;-0.50;99.90;;;;;;5042982;28;20193;-71
2023/01/25 08:10:11;;;;;;;59.45;29.30;;;-0.50;99.90;;;;;;5016457;28;20159;-71
2023/01/25 08:12:37;;;;;;;63.47;32.42;;;0.40;99.90;;;;;;5018754;28;20057;-72
2023/01/25 08:15:04;;;;;;;58.67;30.27;;;-0.60;99.90;;;;;;5003668;28;20293;-71
2023/01/25 08:17:31;;;;;;;55.45;29.33;;;-0.60;99.90;;;;;;5021148;28;20163;-71
2023/01/25 08:19:58;;;;;;;59.30;30.67;;;-0.60;99.90;;;;;;5022570;28;20614;-71
2023/01/25 08:22:24;;;;;;;56.80;30.40;;;-0.60;99.90;;;;;;5019079;28;20080;-72
2023/01/25 08:24:49;;;;;;;56.60;29.85;;;-0.60;99.90;;;;;;5023393;28;20198;-70
2023/01/25 08:27:15;;;;;;;62.40;31.17;;;-0.60;99.90;;;;;;5005103;28;20401;-71
2023/01/25 08:29:41;;;;;;;63.72;32.53;;;-0.60;99.90;;;;;;5020304;28;20053;-70
2023/01/25 08:32:07;;;;;;;64.90;32.65;;;-0.60;99.90;;;;;;5038637;28;20055;-70
2023/01/25 08:34:33;;;;;;;59.33;30.80;;;-0.60;99.90;;;;;;5021794;28;21373;-70
2023/01/25 08:37:00;;;;;;;68.57;33.17;;;-0.60;99.90;;;;;;5040213;28;20067;-70
2023/01/25 08:39:26;;;;;;;60.70;30.58;;;-0.60;99.90;;;;;;5005451;28;20055;-70
2023/01/25 08:41:52;;;;;;;61.67;31.20;;;0.30;99.90;;;;;;5024968;28;20194;-71
2023/01/25 08:44:22;;;;;;;65.97;32.58;;;-0.10;99.90;;;;;;5042951;28;20097;-71
2023/01/25 08:46:48;;;;;;;66.35;33.25;;;-0.60;99.90;;;;;;5002521;28;20041;-71
2023/01/25 08:49:14;;;;;;;63.22;32.22;;;-0.50;99.90;;;;;;5032029;28;20131;-71
2023/01/25 08:51:41;;;;;;;66.50;32.58;;;-0.60;99.90;;;;;;5041412;28;20367;-71
2023/01/25 08:54:09;;;;;;;64.63;32.70;;;-0.60;99.90;;;;;;5045102;28;20049;-71
2023/01/25 08:56:39;;;;;;;68.70;33.38;;;-0.60;99.90;;;;;;5003708;28;20425;-71
2023/01/25 08:59:05;;;;;;;65.10;31.90;;;-0.60;99.90;;;;;;5047172;28;20482;-71
2023/01/25 09:01:31;;;;;;;62.40;31.38;;;-0.60;99.90;;;;;;5024936;28;20067;-70
2023/01/25 09:03:57;;;;;;;65.55;32.30;;;-0.50;99.90;;;;;;5007505;28;20246;-71
2023/01/25 09:06:22;;;;;;;70.13;34.30;;;0.80;99.90;;;;;;5040363;28;20458;-71
2023/01/25 09:08:48;;;;;;;67.88;32.08;;;-0.50;99.90;;;;;;5020891;28;20639;-71
2023/01/25 09:11:23;;;;;;;66.55;32.13;;;-0.50;99.90;;;;;;5007932;28;20044;-71
2023/01/25 09:13:49;;;;;;;64.35;31.60;;;-0.50;99.90;;;;;;5042581;28;20048;-71
2023/01/25 09:16:26;;;;;;;66.15;31.05;;;-0.50;99.90;;;;;;5041193;28;20040;-71
2023/01/25 09:18:53;;;;;;;66.20;31.83;;;-0.50;99.90;;;;;;5022370;28;20055;-71
2023/01/25 09:21:19;;;;;;;68.20;31.67;;;-0.50;99.90;;;;;;5013499;28;20071;-72
2023/01/25 09:23:48;;;;;;;66.90;32.65;;;-0.50;99.90;;;;;;5043392;28;20455;-72
2023/01/25 09:26:14;;;;;;;66.00;32.40;;;-0.50;99.90;;;;;;5031748;28;20049;-71
2023/01/25 09:28:41;;;;;;;70.85;35.38;;;-0.50;99.90;;;;;;5052380;28;20094;-72
2023/01/25 09:31:07;;;;;;;67.57;33.42;;;-0.30;99.90;;;;;;5053464;28;20076;-72
2023/01/25 09:33:35;;;;;;;66.55;32.75;;;-0.40;99.90;;;;;;5039177;28;20326;-71
2023/01/25 09:36:01;;;;;;;70.32;31.25;;;-0.40;99.90;;;;;;5036532;28;20047;-71
2023/01/25 09:38:27;;;;;;;73.57;32.63;;;-0.50;99.90;;;;;;5033916;28;20045;-70
2023/01/25 09:41:27;;;;;;;66.32;31.63;;;-0.40;99.90;;;;;;5046622;28;20533;-71
2023/01/25 09:44:13;;;;;;;66.53;30.98;;;-0.40;99.90;;;;;;5035827;28;20088;-71
2023/01/25 09:46:51;;;;;;;62.85;30.52;;;-0.40;99.90;;;;;;5053328;28;20048;-71
2023/01/25 09:49:32;;;;;;;63.58;30.83;;;-0.40;99.90;;;;;;5040340;28;20116;-70
2023/01/25 09:52:01;;;;;;;69.63;31.97;;;-0.40;99.90;;;;;;5041701;28;20041;-70
2023/01/25 09:54:29;;;;;;;65.53;31.05;;;-0.40;99.90;;;;;;5051858;28;20305;-70
2023/01/25 09:56:57;;;;;;;72.95;34.75;;;-0.30;99.90;;;;;;5062227;28;20100;-71
2023/01/25 09:59:29;;;;;;;67.40;31.75;;;-0.40;99.90;;;;;;5065503;28;20067;-70
2023/01/25 10:02:04;;;;;;;62.63;31.40;;;-0.30;99.90;;;;;;5062538;28;20056;-71
2023/01/25 10:04:38;;;;;;;60.75;29.58;;;-0.30;99.90;;;;;;5057921;28;20071;-71
2023/01/25 10:07:26;;;;;;;60.88;29.27;;;-0.30;99.90;;;;;;5054098;28;20068;-71
2023/01/25 10:10:10;;;;;;;61.50;29.02;;;-0.10;99.90;;;;;;5006866;28;20061;-71
2023/01/25 10:12:37;;;;;;;66.25;28.80;;;-0.30;99.90;;;;;;5060358;28;20091;-71
2023/01/25 10:15:27;;;;;;;58.50;27.75;;;-0.30;99.90;;;;;;5054049;28;20489;-70
2023/01/25 10:18:02;;;;;;;65.35;27.77;;;-0.20;99.90;;;;;;5040905;28;20131;-71
2023/01/25 10:20:35;;;;;;;65.60;28.45;;;-0.30;99.90;;;;;;5028697;28;20473;-71
2023/01/25 10:23:49;;;;;;;60.38;27.23;;;-0.30;99.90;;;;;;5035752;28;20046;-71
2023/01/25 10:26:28;;;;;;;62.25;27.88;;;-0.20;99.90;;;;;;5035812;28;20552;-71
2023/01/25 10:29:11;;;;;;;63.15;28.45;;;-0.20;99.90;;;;;;5023052;28;20044;-72
2023/01/25 10:31:45;;;;;;;64.85;28.55;;;-0.20;99.90;;;;;;5056853;28;20116;-71
2023/01/25 10:34:26;;;;;;;61.20;27.42;;;-0.10;99.90;;;;;;5020696;28;20128;-71
2023/01/25 10:36:55;;;;;;;47.83;22.02;;;-0.10;99.90;;;;;;5031322;28;20084;-71
2023/01/25 10:39:21;;;;;;;69.13;30.52;;;-0.10;99.90;;;;;;5013914;28;20057;-71
2023/01/25 10:41:54;;;;;;;66.57;31.75;;;-0.10;99.90;;;;;;5037896;28;20046;-71
2023/01/25 10:44:20;;;;;;;67.70;30.45;;;0.00;99.90;;;;;;5041634;28;20075;-72
2023/01/25 10:47:08;;;;;;;66.97;31.17;;;0.00;99.90;;;;;;5031284;28;20045;-71
2023/01/25 10:49:50;;;;;;;70.68;32.40;;;0.00;99.90;;;;;;5032723;28;20084;-71
2023/01/25 10:52:16;;;;;;;75.85;34.60;;;0.10;99.90;;;;;;5026273;28;20041;-70
2023/01/25 10:54:42;;;;;;;74.60;32.97;;;0.50;99.90;;;;;;5028482;28;20075;-71
2023/01/25 10:57:13;;;;;;;72.65;32.15;;;0.00;99.90;;;;;;5021786;28;20049;-70
2023/01/25 10:59:39;;;;;;;68.55;30.05;;;0.10;99.90;;;;;;5011903;28;20045;-71
2023/01/25 11:02:36;;;;;;;72.10;30.90;;;0.10;99.90;;;;;;5034644;28;20078;-70
2023/01/25 11:05:23;;;;;;;67.55;30.42;;;0.10;99.90;;;;;;5056563;28;20040;-70
2023/01/25 11:07:49;;;;;;;68.80;29.20;;;0.10;99.90;;;;;;5022173;28;20052;-71
2023/01/25 11:10:28;;;;;;;71.60;29.63;;;0.30;99.90;;;;;;5041190;28;20085;-71
2023/01/25 11:13:16;;;;;;;66.65;29.23;;;0.10;99.90;;;;;;5057906;28;20044;-71
2023/01/25 11:15:44;;;;;;;75.93;31.33;;;0.20;99.90;;;;;;5038928;28;20122;-71
2023/01/25 11:18:32;;;;;;;66.97;30.50;;;0.60;99.90;;;;;;5035238;28;20055;-71
2023/01/25 11:21:18;;;;;;;74.72;29.90;;;0.20;99.90;;;;;;5039491;28;20045;-71
2023/01/25 11:23:56;;;;;;;75.43;29.17;;;0.20;99.90;;;;;;5057579;28;20103;-71
2023/01/25 11:26:22;;;;;;;71.57;28.85;;;0.20;99.90;;;;;;5045414;28;20048;-71
2023/01/25 11:28:48;;;;;;;66.32;27.13;;;0.20;99.90;;;;;;5041352;28;20123;-71
2023/01/25 11:31:21;;;;;;;69.30;27.88;;;0.20;99.90;;;;;;5041237;28;20083;-71
2023/01/25 11:33:47;;;;;;;73.15;30.02;;;0.70;99.90;;;;;;5045031;28;20076;-71
2023/01/25 11:36:18;;;;;;;70.10;28.45;;;0.30;99.90;;;;;;5028644;28;20127;-71
2023/01/25 11:39:00;;;;;;;85.05;33.40;;;0.60;99.90;;;;;;5035618;28;20036;-71
2023/01/25 11:41:32;;;;;;;;;;;0.60;99.90;;;;;;5056440;28;20036;-71
2023/01/25 11:44:18;;;;;;;76.35;29.92;;;0.30;99.90;;;;;;5041643;28;20481;-71
2023/01/25 11:46:50;;;;;;;74.78;30.85;;;0.30;99.90;;;;;;5040715;28;20044;-71
2023/01/25 11:49:24;;;;;;;90.85;32.92;;;0.30;99.90;;;;;;5054514;28;20048;-72
2023/01/25 11:52:20;;;;;;;79.47;30.25;;;1.30;99.90;;;;;;5020905;28;20044;-72
2023/01/25 11:55:01;;;;;;;76.82;29.70;;;0.40;99.90;;;;;;5051336;28;20135;-71
2023/01/25 11:57:40;;;;;;;79.07;31.27;;;0.40;99.90;;;;;;5033362;28;20083;-71
2023/01/25 12:00:39;;;;;;;82.38;30.40;;;0.40;99.90;;;;;;5035838;28;20437;-71
2023/01/25 12:03:19;;;;;;;76.70;29.98;;;0.40;99.90;;;;;;5038018;28;20040;-71
2023/01/25 12:06:08;;;;;;;74.07;28.83;;;0.40;99.90;;;;;;5026058;28;20456;-71
2023/01/25 12:08:48;;;;;;;77.93;28.88;;;0.40;99.90;;;;;;5054251;28;20047;-71
2023/01/25 12:11:53;;;;;;;82.07;30.47;;;0.80;99.90;;;;;;5054766;28;20045;-71
2023/01/25 12:14:39;;;;;;;78.45;29.38;;;0.50;99.90;;;;;;5036216;28;20074;-71
2023/01/25 12:17:25;;;;;;;82.28;29.27;;;0.40;99.90;;;;;;5039595;28;20481;-71
2023/01/25 12:19:53;;;;;;;74.53;28.10;;;0.50;99.90;;;;;;5033158;28;20056;-71
2023/01/25 12:22:49;;;;;;;81.47;29.83;;;0.50;99.90;;;;;;5032477;28;20480;-71
2023/01/25 12:25:21;;;;;;;74.15;27.20;;;0.50;99.90;;;;;;5011593;28;20456;-71
2023/01/25 12:28:00;;;;;;;83.70;28.70;;;0.50;99.90;;;;;;5046891;28;20045;-72
2023/01/25 12:30:48;;;;;;;77.10;27.05;;;0.60;99.90;;;;;;5034347;28;20048;-71
2023/01/25 12:33:17;;;;;;;74.88;27.15;;;0.60;99.90;;;;;;5035154;28;20132;-71
2023/01/25 12:35:53;;;;;;;75.13;27.52;;;0.60;99.90;;;;;;5030888;28;20403;-71
2023/01/25 12:38:43;;;;;;;71.68;28.50;;;0.60;99.90;;;;;;5016190;28;20102;-72
2023/01/25 12:41:21;;;;;;;74.47;27.60;;;0.60;99.90;;;;;;5013503;28;20140;-71
2023/01/25 12:43:57;;;;;;;80.38;28.88;;;0.60;99.90;;;;;;5043228;28;20052;-71
2023/01/25 12:46:35;;;;;;;82.97;29.25;;;0.60;99.90;;;;;;5030874;28;20063;-71
2023/01/25 12:49:12;;;;;;;79.97;27.70;;;0.60;99.90;;;;;;5037318;28;20060;-71